Impacts TAF Board INFO
FOR SITUATIONAL AWARENESS. NOT TO BE USED FOR FLIGHT PLANNING PURPOSES.
IDs:

KMEM - Memphis Intl, TN, US

Issued at 0858 UTC 26 Feb 2017
Updated at 1003 UTC 26 Feb 2017
Potential Impact None Slight Moderate High
Time0954Z 26/11Z 26/12Z 26/13Z 26/14Z 26/15Z 26/16Z 26/17Z 26/18Z 26/19Z 26/20Z 26/21Z 26/22Z 26/23Z
Type OBS PRVL PRVL PRVL PRVL PRVL PRVL PRVL PRVL PRVL PRVL PRVL PRVL PRVL
VIS 10 >6 >6 >6 >6 >6 >6 >6 >6 >6 >6 >6 >6 >6
CIG -- -- -- -- -- -- -- -- -- -- -- -- -- --
Cover CLR SKC SKC SKC SCT SCT SCT SCT SCT SCT SCT SCT SCT SCT
FltCat VFR VFR VFR VFR VFR VFR VFR VFR VFR VFR VFR VFR VFR VFR
WX -- -- -- -- -- -- -- -- -- -- -- -- -- --
WDir VRB 210 210 210 150 150 150 150 150 150 150 150 150 150
WSpd 0 3 3 3 9 9 9 9 9 9 9 9 9 9
WGst -- -- -- -- -- -- -- -- -- -- -- -- -- --

Raw TAF
KMEM 260858Z 2609/2706 21003KT P6SM SKC
  FM261400 15009KT P6SM SCT250
  FM270300 15007KT P6SM OVC060


Raw METAR
KMEM 260954Z 00000KT 10SM CLR 00/M05 A3017 RMK AO2 SLP216 T00001050
KMEM 260854Z 21003KT 10SM CLR 01/M05 A3016 RMK AO2 SLP214 T00061050 51003
KMEM 260754Z 19005KT 10SM CLR 00/M05 A3016 RMK AO2 SLP213 T00001050

METAR Board
Radar Display
Forecast Discussion

FOR SITUATIONAL AWARENESS. NOT TO BE USED FOR FLIGHT PLANNING PURPOSES.

Page loaded:  10:03 UTC  |   02:03 AM Pacific  |   03:03 AM Mountain  |   04:03 AM Central  |   05:03 AM Eastern

 

ADVISORIES

FORECASTS

FORECASTS

OBSERVATIONS

USER TOOLS

ABOUT US